Time;durP1;ratioP1;P1;durP2;ratioP2;P2;SDS_P1;SDS_P2;PMS_P1;PMS_P2;Temp;Humidity;BMP_temperature;BMP_pressure;BME280_temperature;BME280_humidity;BME280_pressure;Samples;Min_cycle;Max_cycle;Signal;HPM_P1;HPM_P2
2023/12/18 00:00:00;;;;;;;0.20;0.20;;;;;;;5.27;100.00;102223.75;5005664;28;20452;-52
2023/12/18 00:02:26;;;;;;;0.30;0.20;;;;;;;5.19;100.00;102218.28;5001587;28;20448;-52
2023/12/18 00:04:53;;;;;;;0.20;0.10;;;;;;;5.34;100.00;102228.31;4998232;28;20461;-52
2023/12/18 00:07:19;;;;;;;0.20;0.10;;;;;;;5.19;100.00;102227.94;4999137;28;20452;-52
2023/12/18 00:09:46;;;;;;;0.20;0.10;;;;;;;5.21;100.00;102231.53;5002940;28;20867;-52
2023/12/18 00:12:12;;;;;;;0.20;0.20;;;;;;;5.17;100.00;102219.09;5008236;28;20540;-52
2023/12/18 00:14:39;;;;;;;0.30;0.20;;;;;;;5.01;100.00;102221.38;5005768;28;20452;-52
2023/12/18 00:17:05;;;;;;;0.20;0.20;;;;;;;5.03;100.00;102219.66;5001241;28;20488;-52
2023/12/18 00:19:32;;;;;;;0.30;0.20;;;;;;;4.97;100.00;102216.00;5005850;28;20848;-52
2023/12/18 00:22:00;;;;;;;0.20;0.10;;;;;;;5.05;100.00;102217.06;4996695;28;20500;-52
2023/12/18 00:24:27;;;;;;;0.20;0.13;;;;;;;4.98;100.00;102216.03;5006566;28;20449;-52
2023/12/18 00:26:54;;;;;;;0.20;0.10;;;;;;;4.98;100.00;102218.66;4996442;28;20453;-52
2023/12/18 00:29:20;;;;;;;0.30;0.20;;;;;;;4.75;100.00;102220.69;4995195;28;20449;-52
2023/12/18 00:31:48;;;;;;;0.30;0.13;;;;;;;4.93;100.00;102206.19;5007885;28;20540;-52
2023/12/18 00:34:14;;;;;;;0.20;0.20;;;;;;;4.93;100.00;102201.81;5006639;28;20543;-52
2023/12/18 00:36:42;;;;;;;0.30;0.20;;;;;;;4.97;100.00;102190.53;5001217;28;20452;-52
2023/12/18 00:39:09;;;;;;;0.20;0.10;;;;;;;4.92;100.00;102191.25;5001716;28;20489;-52
2023/12/18 00:41:35;;;;;;;0.30;0.20;;;;;;;4.91;100.00;102194.75;5007729;28;20477;-52
2023/12/18 00:44:02;;;;;;;0.20;0.20;;;;;;;4.90;100.00;102193.84;5004970;28;20457;-52
2023/12/18 00:46:28;;;;;;;0.20;0.17;;;;;;;4.88;100.00;102199.94;4981941;28;20977;-52
2023/12/18 00:48:55;;;;;;;0.20;0.13;;;;;;;4.70;100.00;102189.81;5006693;28;20482;-52
2023/12/18 00:51:21;;;;;;;0.20;0.10;;;;;;;4.92;100.00;102176.31;5001092;28;20468;-52
2023/12/18 00:53:48;;;;;;;0.20;0.20;;;;;;;4.74;100.00;102178.50;5000571;28;20453;-52
2023/12/18 00:56:14;;;;;;;0.20;0.20;;;;;;;4.37;100.00;102182.78;4987991;28;20913;-52
2023/12/18 00:58:41;;;;;;;0.20;0.20;;;;;;;4.39;100.00;102189.03;5000494;28;20567;-52
2023/12/18 01:01:07;;;;;;;0.20;0.20;;;;;;;4.39;100.00;102186.38;5007039;28;20580;-52
2023/12/18 01:03:34;;;;;;;0.20;0.20;;;;;;;4.43;100.00;102196.13;4993173;28;21001;-52
2023/12/18 01:06:02;;;;;;;1.07;1.07;;;;;;;4.50;100.00;102193.66;4996832;28;20450;-52
2023/12/18 01:08:29;;;;;;;0.20;0.20;;;;;;;4.27;100.00;102199.22;4996394;28;20450;-52
2023/12/18 01:10:55;;;;;;;0.20;0.10;;;;;;;4.42;100.00;102191.72;5006079;28;20583;-52
2023/12/18 01:13:22;;;;;;;0.20;0.20;;;;;;;4.32;100.00;102189.69;5007051;28;20910;-52
2023/12/18 01:15:49;;;;;;;0.30;0.10;;;;;;;4.23;100.00;102191.16;5001251;28;20448;-52
2023/12/18 01:18:16;;;;;;;0.20;0.20;;;;;;;4.22;100.00;102192.91;4999997;28;20507;-52
2023/12/18 01:20:42;;;;;;;0.30;0.20;;;;;;;4.10;100.00;102187.28;5006338;28;20473;-52
2023/12/18 01:23:09;;;;;;;0.20;0.20;;;;;;;4.10;100.00;102188.19;4997695;28;20484;-52
2023/12/18 01:25:35;;;;;;;0.20;0.20;;;;;;;4.18;100.00;102191.03;5006082;28;20984;-52
2023/12/18 01:28:02;;;;;;;0.20;0.10;;;;;;;4.18;100.00;102195.41;5006594;28;20475;-52
2023/12/18 01:30:28;;;;;;;0.30;0.10;;;;;;;4.17;100.00;102194.53;5001531;28;20539;-52
2023/12/18 01:32:55;;;;;;;0.20;0.10;;;;;;;4.18;100.00;102195.41;4999768;28;20461;-52
2023/12/18 01:35:22;;;;;;;0.30;0.20;;;;;;;4.09;100.00;102204.81;5005302;28;20511;-52
2023/12/18 01:37:48;;;;;;;0.30;0.20;;;;;;;4.05;100.00;102199.44;4994527;28;20481;-52
2023/12/18 01:40:15;;;;;;;0.20;0.10;;;;;;;4.05;100.00;102200.31;5001529;28;20555;-52
2023/12/18 01:42:44;;;;;;;0.40;0.40;;;;;;;4.03;100.00;102198.50;4999534;28;21004;-51
2023/12/18 01:45:11;;;;;;;0.20;0.20;;;;;;;4.21;100.00;102195.50;5004021;28;20477;-51
2023/12/18 01:47:39;;;;;;;14.97;14.00;;;;;;;4.18;100.00;102190.16;5006501;28;20460;-51
2023/12/18 01:50:07;;;;;;;0.20;0.10;;;;;;;3.92;100.00;102182.41;5008905;28;20449;-51
2023/12/18 01:52:35;;;;;;;0.20;0.13;;;;;;;4.06;100.00;102164.38;4997768;28;20987;-51
2023/12/18 01:55:03;;;;;;;0.20;0.13;;;;;;;4.04;100.00;102168.72;4993276;28;20973;-52
2023/12/18 01:57:30;;;;;;;0.20;0.17;;;;;;;3.88;100.00;102161.22;5006600;28;20453;-51
2023/12/18 01:59:57;;;;;;;0.20;0.10;;;;;;;4.01;100.00;102148.47;5003176;28;20507;-51
2023/12/18 02:02:25;;;;;;;0.20;0.20;;;;;;;4.00;100.00;102156.31;4997893;28;20506;-52
2023/12/18 02:04:52;;;;;;;0.20;0.20;;;;;;;4.02;100.00;102158.16;5002373;28;20548;-51
2023/12/18 02:07:18;;;;;;;0.20;0.10;;;;;;;3.95;100.00;102160.53;4996740;28;20448;-51
2023/12/18 02:09:45;;;;;;;0.20;0.20;;;;;;;3.99;100.00;102159.81;5001919;28;20919;-51
2023/12/18 02:12:12;;;;;;;0.20;0.10;;;;;;;3.64;100.00;102162.28;5006019;28;20516;-51
2023/12/18 02:14:39;;;;;;;0.20;0.17;;;;;;;3.66;100.00;102176.38;5003387;28;20497;-51
2023/12/18 02:17:06;;;;;;;0.20;0.10;;;;;;;3.55;100.00;102175.16;4995201;28;20461;-51
2023/12/18 02:19:33;;;;;;;0.20;0.10;;;;;;;3.51;100.00;102182.06;5003154;28;20917;-51
2023/12/18 02:22:00;;;;;;;0.20;0.20;;;;;;;3.25;100.00;102186.50;4999162;28;20475;-51
2023/12/18 02:24:26;;;;;;;0.20;0.20;;;;;;;3.56;100.00;102182.19;5001169;28;20997;-51
2023/12/18 02:26:54;;;;;;;0.20;0.10;;;;;;;3.38;100.00;102182.53;5005785;28;20454;-51
2023/12/18 02:29:21;;;;;;;0.20;0.20;;;;;;;3.25;100.00;102181.25;5003358;28;20465;-51
2023/12/18 02:31:47;;;;;;;0.23;0.13;;;;;;;3.17;100.00;102181.88;4998920;28;20917;-51
2023/12/18 02:34:14;;;;;;;0.20;0.20;;;;;;;3.12;100.00;102186.06;5001190;28;20446;-51
2023/12/18 02:36:41;;;;;;;0.20;0.10;;;;;;;3.05;100.00;102178.84;5005483;28;20445;-52
2023/12/18 02:39:08;;;;;;;0.20;0.20;;;;;;;2.74;100.00;102184.78;5003187;28;20580;-51
2023/12/18 02:41:34;;;;;;;0.30;0.20;;;;;;;2.66;100.00;102176.66;4998601;28;20476;-51
2023/12/18 02:44:01;;;;;;;0.20;0.10;;;;;;;2.75;100.00;102176.09;4999844;28;20574;-51
2023/12/18 02:46:27;;;;;;;0.20;0.20;;;;;;;2.68;100.00;102175.88;5005069;28;20507;-51
2023/12/18 02:48:54;;;;;;;7.40;6.73;;;;;;;3.11;100.00;102169.41;5003918;28;20537;-51
2023/12/18 02:51:21;;;;;;;0.20;0.10;;;;;;;3.13;100.00;102166.81;4999171;28;20559;-51
2023/12/18 02:53:47;;;;;;;0.20;0.20;;;;;;;2.95;100.00;102169.75;5000129;28;20705;-51
2023/12/18 02:56:14;;;;;;;0.20;0.10;;;;;;;3.13;100.00;102159.81;5005555;28;20453;-51
2023/12/18 02:58:40;;;;;;;0.20;0.20;;;;;;;2.70;100.00;102157.53;4997166;28;20547;-51
2023/12/18 03:01:09;;;;;;;0.50;0.50;;;;;;;2.97;100.00;102163.69;5004871;28;20473;-51
2023/12/18 03:03:35;;;;;;;0.60;0.60;;;;;;;2.70;100.00;102165.41;5004643;28;20514;-50
2023/12/18 03:06:02;;;;;;;0.20;0.20;;;;;;;2.92;100.00;102169.66;4992372;28;20457;-51
2023/12/18 03:08:29;;;;;;;0.20;0.10;;;;;;;3.17;100.00;102163.47;5005142;28;20448;-51
2023/12/18 03:10:56;;;;;;;0.20;0.20;;;;;;;3.21;100.00;102167.97;4999181;28;20531;-51
2023/12/18 03:13:22;;;;;;;0.20;0.10;;;;;;;3.42;100.00;102163.38;4997919;28;20836;-51
2023/12/18 03:15:49;;;;;;;0.20;0.10;;;;;;;3.18;100.00;102160.00;5004825;28;20516;-51
2023/12/18 03:18:15;;;;;;;0.30;0.20;;;;;;;3.20;100.00;102161.81;4996503;28;20453;-52
2023/12/18 03:20:42;;;;;;;0.20;0.10;;;;;;;3.19;100.00;102151.28;5004053;28;20469;-51
2023/12/18 03:23:08;;;;;;;0.30;0.20;;;;;;;2.79;100.00;102151.72;5004804;28;21297;-50
2023/12/18 03:25:35;;;;;;;0.20;0.10;;;;;;;2.71;100.00;102153.19;4999374;28;21047;-51
2023/12/18 03:28:02;;;;;;;0.20;0.10;;;;;;;2.73;100.00;102141.88;4998309;28;20485;-51
2023/12/18 03:30:28;;;;;;;0.20;0.10;;;;;;;2.51;100.00;102142.91;4996747;28;20497;-52
2023/12/18 03:32:55;;;;;;;0.20;0.10;;;;;;;2.45;100.00;102147.94;4999773;28;20967;-51
2023/12/18 03:35:22;;;;;;;0.20;0.10;;;;;;;2.60;100.00;102144.94;5005499;28;20540;-51
2023/12/18 03:37:48;;;;;;;0.20;0.10;;;;;;;2.63;100.00;102142.44;4999310;28;20489;-52
2023/12/18 03:40:15;;;;;;;0.20;0.10;;;;;;;2.67;100.00;102152.19;4999452;28;20949;-51
2023/12/18 03:42:41;;;;;;;0.20;0.10;;;;;;;2.83;100.00;102157.09;4990292;28;20820;-51
2023/12/18 03:45:08;;;;;;;0.20;0.20;;;;;;;3.00;100.00;102149.78;4999780;28;20537;-51
2023/12/18 03:47:35;;;;;;;0.20;0.10;;;;;;;2.95;100.00;102149.63;4995490;28;20550;-52
2023/12/18 03:50:02;;;;;;;0.20;0.10;;;;;;;2.73;100.00;102141.00;4990538;28;20973;-51
2023/12/18 03:52:28;;;;;;;0.20;0.20;;;;;;;2.40;100.00;102141.66;5004392;28;20453;-51
2023/12/18 03:54:55;;;;;;;0.20;0.10;;;;;;;2.55;100.00;102147.41;4991272;28;20468;-51
2023/12/18 03:57:21;;;;;;;0.20;0.10;;;;;;;2.57;100.00;102140.47;4992854;28;20485;-52
2023/12/18 03:59:48;;;;;;;0.20;0.20;;;;;;;2.69;100.00;102150.50;5003280;28;20491;-51
2023/12/18 04:02:15;;;;;;;0.20;0.10;;;;;;;2.66;100.00;102148.69;4997961;28;20453;-52
2023/12/18 04:04:41;;;;;;;0.30;0.20;;;;;;;2.41;100.00;102138.19;5002217;28;21005;-51
2023/12/18 04:07:08;;;;;;;0.20;0.10;;;;;;;2.41;100.00;102138.19;4993909;28;20461;-51
2023/12/18 04:09:38;;;;;;;0.20;0.10;;;;;;;2.56;100.00;102129.94;4997551;28;20520;-51
2023/12/18 04:12:05;;;;;;;0.20;0.10;;;;;;;2.65;100.00;102140.75;4991015;28;20484;-51
2023/12/18 04:14:32;;;;;;;0.20;0.10;;;;;;;2.59;100.00;102144.03;5000663;28;20460;-51
2023/12/18 04:16:58;;;;;;;0.20;0.10;;;;;;;2.90;100.00;102139.84;4997743;28;20456;-51
2023/12/18 04:19:25;;;;;;;0.20;0.13;;;;;;;2.71;100.00;102143.56;5003206;28;21096;-51
2023/12/18 04:21:52;;;;;;;0.20;0.10;;;;;;;2.64;100.00;102142.50;5007967;28;20986;-51
2023/12/18 04:24:18;;;;;;;0.20;0.20;;;;;;;2.57;100.00;102147.47;5003468;28;20495;-51
2023/12/18 04:26:46;;;;;;;0.23;0.20;;;;;;;2.76;100.00;102138.50;4998071;28;20493;-50
2023/12/18 04:29:13;;;;;;;0.20;0.20;;;;;;;2.64;100.00;102137.25;5003398;28;20518;-52
2023/12/18 04:31:40;;;;;;;0.20;0.10;;;;;;;2.85;100.00;102136.16;4999865;28;20480;-52
2023/12/18 04:34:07;;;;;;;0.20;0.10;;;;;;;2.72;100.00;102140.09;5004614;28;20520;-52
2023/12/18 04:36:40;;;;;;;0.20;0.10;;;;;;;2.64;100.00;102134.63;5007918;28;20459;-52
2023/12/18 04:39:06;;;;;;;0.20;0.10;;;;;;;2.71;100.00;102137.44;5006333;28;20493;-51
2023/12/18 04:41:33;;;;;;;0.20;0.10;;;;;;;2.81;100.00;102132.53;5000962;28;20469;-51
2023/12/18 04:44:00;;;;;;;0.20;0.20;;;;;;;2.79;100.00;102146.47;5003037;28;20461;-52
2023/12/18 04:46:26;;;;;;;0.20;0.10;;;;;;;2.77;100.00;102138.53;5007655;28;20500;-52
2023/12/18 04:48:53;;;;;;;0.20;0.10;;;;;;;2.70;100.00;102140.91;5005710;28;20488;-51
2023/12/18 04:51:20;;;;;;;0.20;0.20;;;;;;;2.92;100.00;102138.16;5000626;28;20531;-52
2023/12/18 04:53:47;;;;;;;0.20;0.10;;;;;;;2.90;100.00;102142.47;5002111;28;20516;-52
2023/12/18 04:56:13;;;;;;;0.30;0.10;;;;;;;2.97;100.00;102142.69;5007691;28;20453;-52
2023/12/18 04:58:40;;;;;;;3.90;3.60;;;;;;;3.01;100.00;102142.78;5005659;28;20494;-52
2023/12/18 05:01:06;;;;;;;0.20;0.10;;;;;;;2.95;100.00;102140.88;5000804;28;20835;-52
2023/12/18 05:03:33;;;;;;;0.20;0.10;;;;;;;3.07;100.00;102136.00;5002246;28;20891;-52
2023/12/18 05:06:04;;;;;;;0.20;0.10;;;;;;;3.06;100.00;102144.72;4995807;28;20496;-52
2023/12/18 05:08:30;;;;;;;0.40;0.40;;;;;;;3.03;100.00;102143.75;5007183;28;20452;-52
2023/12/18 05:10:57;;;;;;;0.20;0.10;;;;;;;3.11;100.00;102140.50;5001019;28;20473;-52
2023/12/18 05:13:23;;;;;;;0.20;0.10;;;;;;;3.04;100.00;102137.66;5000381;28;20880;-52
2023/12/18 05:15:51;;;;;;;0.20;0.10;;;;;;;3.02;100.00;102142.84;5006887;28;20519;-52
2023/12/18 05:18:17;;;;;;;0.20;0.10;;;;;;;3.09;100.00;102136.94;4998816;28;20457;-52
2023/12/18 05:20:44;;;;;;;0.20;0.10;;;;;;;2.97;100.00;102142.69;5006088;28;20919;-52
2023/12/18 05:23:11;;;;;;;0.20;0.10;;;;;;;2.89;100.00;102140.69;5006697;28;20488;-52
2023/12/18 05:25:37;;;;;;;0.20;0.10;;;;;;;2.81;100.00;102136.91;5001435;28;20452;-52
2023/12/18 05:28:04;;;;;;;0.20;0.10;;;;;;;2.80;100.00;102148.25;5000303;28;20449;-51
2023/12/18 05:30:30;;;;;;;0.20;0.10;;;;;;;2.64;100.00;102149.47;5005252;28;20520;-52
2023/12/18 05:32:57;;;;;;;0.20;0.10;;;;;;;2.78;100.00;102142.06;5006830;28;20539;-52
2023/12/18 05:35:23;;;;;;;0.20;0.10;;;;;;;2.70;100.00;102147.03;5001647;28;20456;-52
2023/12/18 05:37:50;;;;;;;0.20;0.10;;;;;;;2.58;100.00;102144.00;5000130;28;20540;-52
2023/12/18 05:40:16;;;;;;;0.20;0.10;;;;;;;2.51;100.00;102145.53;5005092;28;20556;-52
2023/12/18 05:42:43;;;;;;;0.20;0.20;;;;;;;2.53;100.00;102143.84;5006267;28;20926;-52
2023/12/18 05:45:10;;;;;;;0.20;0.10;;;;;;;2.44;100.00;102143.53;5001627;28;20459;-52
2023/12/18 05:47:36;;;;;;;0.20;0.10;;;;;;;2.56;100.00;102146.56;5001139;28;20448;-52
2023/12/18 05:50:03;;;;;;;0.20;0.10;;;;;;;2.65;100.00;102143.38;5001873;28;20455;-52
2023/12/18 05:52:29;;;;;;;0.20;0.10;;;;;;;2.57;100.00;102142.22;4998387;28;20981;-51
2023/12/18 05:54:56;;;;;;;0.20;0.10;;;;;;;2.26;100.00;102145.53;4993129;28;20450;-52
2023/12/18 05:57:22;;;;;;;0.20;0.10;;;;;;;2.24;100.00;102145.47;5006398;28;20484;-52
2023/12/18 05:59:49;;;;;;;0.20;0.10;;;;;;;2.32;100.00;102149.25;5002247;28;21011;-52
2023/12/18 06:02:15;;;;;;;0.20;0.10;;;;;;;2.47;100.00;102153.22;4999674;28;20457;-53
2023/12/18 06:04:43;;;;;;;0.20;0.20;;;;;;;2.35;100.00;102145.84;5003211;28;20449;-52
2023/12/18 06:07:10;;;;;;;0.20;0.10;;;;;;;2.37;100.00;102146.81;4995954;28;20544;-52
2023/12/18 06:09:37;;;;;;;0.20;0.20;;;;;;;2.44;100.00;102145.25;5002891;28;20511;-52
2023/12/18 06:12:03;;;;;;;0.20;0.10;;;;;;;2.50;100.00;102150.75;5006021;28;20481;-51
2023/12/18 06:14:30;;;;;;;0.20;0.10;;;;;;;2.56;100.00;102146.56;5002526;28;20446;-55
2023/12/18 06:16:57;;;;;;;0.20;0.10;;;;;;;2.61;100.00;102139.78;4999255;28;20480;-51
2023/12/18 06:19:23;;;;;;;0.20;0.10;;;;;;;2.68;100.00;102149.63;5003148;28;20567;-51
2023/12/18 06:21:50;;;;;;;0.20;0.10;;;;;;;2.76;100.00;102146.38;4998985;28;20479;-51
2023/12/18 06:24:16;;;;;;;0.20;0.10;;;;;;;3.02;100.00;102147.22;5002319;28;20502;-51
2023/12/18 06:26:43;;;;;;;0.20;0.10;;;;;;;2.82;100.00;102151.81;5005838;28;20942;-52
2023/12/18 06:29:09;;;;;;;0.20;0.10;;;;;;;2.78;100.00;102149.94;5002601;28;20520;-51
2023/12/18 06:31:36;;;;;;;0.20;0.10;;;;;;;2.91;100.00;102149.50;4998985;28;20508;-51
2023/12/18 06:34:03;;;;;;;0.20;0.10;;;;;;;2.80;100.00;102140.38;5002206;28;20946;-51
2023/12/18 06:36:30;;;;;;;0.20;0.20;;;;;;;2.66;100.00;102135.56;5006097;28;20465;-52
2023/12/18 06:38:57;;;;;;;0.20;0.10;;;;;;;2.55;100.00;102133.41;5002584;28;20512;-51
2023/12/18 06:41:24;;;;;;;0.20;0.10;;;;;;;2.63;100.00;102143.34;4998219;28;20585;-51
2023/12/18 06:43:50;;;;;;;0.20;0.10;;;;;;;2.74;100.00;102133.19;5001944;28;20457;-52
2023/12/18 06:46:17;;;;;;;0.20;0.13;;;;;;;2.61;100.00;102134.53;5005415;28;20527;-51
2023/12/18 06:48:43;;;;;;;0.20;0.20;;;;;;;2.49;100.00;102131.47;5002980;28;20629;-52
2023/12/18 06:51:10;;;;;;;0.20;0.10;;;;;;;2.35;100.00;102131.00;4998407;28;20600;-51
2023/12/18 06:53:37;;;;;;;0.20;0.10;;;;;;;2.37;100.00;102133.69;5001252;28;20947;-51
2023/12/18 06:56:04;;;;;;;0.20;0.10;;;;;;;2.32;100.00;102132.59;4996622;28;20459;-51
2023/12/18 06:58:30;;;;;;;0.20;0.10;;;;;;;2.33;100.00;102135.31;5001077;28;20504;-52
2023/12/18 07:00:58;;;;;;;0.20;0.20;;;;;;;2.34;100.00;102138.81;5005193;28;20524;-51
2023/12/18 07:03:25;;;;;;;0.20;0.10;;;;;;;2.31;100.00;102138.69;5003654;28;20475;-51
2023/12/18 07:05:53;;;;;;;0.20;0.10;;;;;;;2.27;100.00;102139.44;4993085;28;20473;-51
2023/12/18 07:08:21;;;;;;;0.20;0.13;;;;;;;2.37;100.00;102137.19;5004014;28;20510;-52
2023/12/18 07:10:48;;;;;;;0.20;0.10;;;;;;;2.21;100.00;102139.25;4998240;28;20837;-51
2023/12/18 07:13:15;;;;;;;0.20;0.10;;;;;;;2.22;100.00;102138.41;4999355;28;20464;-51
2023/12/18 07:15:41;;;;;;;0.20;0.10;;;;;;;2.36;100.00;102143.28;5004817;28;20513;-51
2023/12/18 07:18:08;;;;;;;0.20;0.20;;;;;;;2.32;100.00;102154.50;4995826;28;20457;-51
2023/12/18 07:20:35;;;;;;;0.20;0.10;;;;;;;2.43;100.00;102160.13;5004682;28;20497;-51
2023/12/18 07:23:03;;;;;;;0.20;0.10;;;;;;;2.28;100.00;102164.84;5004923;28;20969;-52
2023/12/18 07:25:29;;;;;;;0.20;0.10;;;;;;;2.28;100.00;102162.22;4985430;28;20580;-51
2023/12/18 07:27:56;;;;;;;0.20;0.10;;;;;;;2.34;100.00;102157.19;4998635;28;20453;-51
2023/12/18 07:30:22;;;;;;;0.20;0.10;;;;;;;2.13;100.00;102152.06;4985316;28;20472;-51
2023/12/18 07:32:50;;;;;;;0.20;0.10;;;;;;;2.23;100.00;102151.56;4998320;28;20481;-51
2023/12/18 07:35:16;;;;;;;0.20;0.20;;;;;;;2.32;100.00;102157.13;4986035;28;20548;-52
2023/12/18 07:37:43;;;;;;;0.20;0.10;;;;;;;2.19;100.00;102149.66;4999365;28;20620;-52
2023/12/18 07:40:10;;;;;;;0.20;0.20;;;;;;;2.44;100.00;102147.88;5004386;28;20500;-52
2023/12/18 07:42:37;;;;;;;0.20;0.10;;;;;;;2.41;100.00;102146.06;5004717;28;20453;-52
2023/12/18 07:45:04;;;;;;;0.20;0.20;;;;;;;2.47;100.00;102148.91;4999093;28;20452;-52
2023/12/18 07:47:31;;;;;;;0.20;0.10;;;;;;;2.49;100.00;102146.34;4997836;28;20453;-52
2023/12/18 07:49:57;;;;;;;0.30;0.10;;;;;;;2.53;100.00;102146.47;5003488;28;20468;-52
2023/12/18 07:52:24;;;;;;;0.20;0.10;;;;;;;2.55;100.00;102146.53;5006315;28;20484;-52
2023/12/18 07:54:50;;;;;;;0.20;0.10;;;;;;;2.49;100.00;102165.59;4995567;28;20457;-53
2023/12/18 07:57:17;;;;;;;0.20;0.10;;;;;;;2.20;100.00;102168.94;5008493;28;20448;-51
2023/12/18 07:59:43;;;;;;;0.20;0.10;;;;;;;2.03;100.00;102170.91;5004215;28;20452;-51
2023/12/18 08:02:10;;;;;;;0.20;0.10;;;;;;;1.79;100.00;102160.44;5001386;28;21080;-51
2023/12/18 08:04:36;;;;;;;0.40;0.40;;;;;;;1.68;100.00;102172.25;5005107;28;20932;-51
2023/12/18 08:07:04;;;;;;;0.20;0.20;;;;;;;1.83;100.00;102166.69;4997001;28;20477;-51
2023/12/18 08:09:31;;;;;;;0.20;0.10;;;;;;;1.69;100.00;102166.19;5006304;28;20493;-51
2023/12/18 08:11:58;;;;;;;0.20;0.10;;;;;;;1.80;100.00;102188.44;5006850;28;20488;-51
2023/12/18 08:14:25;;;;;;;0.20;0.10;;;;;;;1.59;100.00;102167.53;5003869;28;20531;-51
2023/12/18 08:16:52;;;;;;;0.20;0.10;;;;;;;1.53;100.00;102163.81;5001356;28;20499;-51
2023/12/18 08:19:18;;;;;;;0.20;0.10;;;;;;;1.74;100.00;102154.13;5005537;28;20531;-51
2023/12/18 08:21:45;;;;;;;0.20;0.10;;;;;;;1.45;100.00;102153.91;5001452;28;20574;-51
2023/12/18 08:24:12;;;;;;;0.20;0.10;;;;;;;1.58;100.00;102150.03;5005251;28;20453;-51
2023/12/18 08:26:39;;;;;;;0.20;0.10;;;;;;;1.52;100.00;102159.41;5007888;28;20789;-51
2023/12/18 08:29:05;;;;;;;0.20;0.10;;;;;;;1.54;100.00;102157.72;5004692;28;20452;-51
2023/12/18 08:31:35;;;;;;;0.20;0.10;;;;;;;1.70;100.00;102162.72;5001055;28;21083;-51
2023/12/18 08:34:01;;;;;;;0.20;0.10;;;;;;;1.69;100.00;102159.19;5004045;28;20453;-51
2023/12/18 08:36:30;;;;;;;0.20;0.10;;;;;;;1.46;100.00;102158.31;5007805;28;20445;-51
2023/12/18 08:38:56;;;;;;;0.40;0.40;;;;;;;1.62;100.00;102153.66;5005547;28;20449;-51
2023/12/18 08:41:23;;;;;;;0.20;0.13;;;;;;;1.76;100.00;102144.59;5000644;28;20520;-51
2023/12/18 08:43:50;;;;;;;0.20;0.10;;;;;;;1.83;100.00;102148.34;5003221;28;20519;-51
2023/12/18 08:46:30;;;;;;;0.20;0.10;;;;;;;1.83;100.00;102151.84;5007960;28;20464;-51
2023/12/18 08:48:57;;;;;;;0.20;0.10;;;;;;;1.78;100.00;102138.59;5007670;28;20452;-52
2023/12/18 08:51:23;;;;;;;0.20;0.10;;;;;;;1.95;100.00;102148.78;5001134;28;20475;-51
2023/12/18 08:53:50;;;;;;;0.20;0.10;;;;;;;2.14;100.00;102152.97;5000466;28;21063;-51
2023/12/18 08:56:16;;;;;;;0.20;0.13;;;;;;;1.97;100.00;102150.63;5001174;28;20457;-51
2023/12/18 08:58:43;;;;;;;0.20;0.10;;;;;;;1.86;100.00;102151.06;5000804;28;20449;-51
2023/12/18 09:01:09;;;;;;;0.20;0.10;;;;;;;1.90;100.00;102145.97;5006711;28;20532;-51
2023/12/18 09:03:36;;;;;;;0.20;0.10;;;;;;;1.96;100.00;102153.19;5006496;28;20480;-51
2023/12/18 09:06:03;;;;;;;0.20;0.10;;;;;;;2.03;100.00;102155.19;4994617;28;20844;-51
2023/12/18 09:08:39;;;;;;;0.20;0.10;;;;;;;1.89;100.00;102146.81;5007038;28;20444;-51
2023/12/18 09:11:09;;;;;;;0.20;0.10;;;;;;;1.80;100.00;102140.38;5002112;28;21053;-51
2023/12/18 09:13:37;;;;;;;0.20;0.10;;;;;;;2.09;100.00;102131.81;5000638;28;20449;-51
2023/12/18 09:16:05;;;;;;;0.20;0.10;;;;;;;2.20;100.00;102138.34;5004475;28;20449;-51
2023/12/18 09:18:32;;;;;;;0.20;0.10;;;;;;;2.13;100.00;102141.56;5001194;28;20532;-51
2023/12/18 09:21:00;;;;;;;0.30;0.10;;;;;;;2.16;100.00;102144.31;5003339;28;20505;-51
2023/12/18 09:23:26;;;;;;;0.20;0.10;;;;;;;2.42;100.00;102134.72;5006924;28;20880;-51
2023/12/18 09:25:53;;;;;;;0.20;0.20;;;;;;;2.56;100.00;102133.44;5003880;28;20543;-51
2023/12/18 09:28:20;;;;;;;0.20;0.20;;;;;;;2.50;100.00;102125.38;5000138;28;20460;-51
2023/12/18 09:30:46;;;;;;;0.20;0.10;;;;;;;2.48;100.00;102131.44;5003292;28;20466;-51
2023/12/18 09:33:13;;;;;;;0.20;0.10;;;;;;;2.64;100.00;102138.97;5006708;28;20912;-51
2023/12/18 09:35:40;;;;;;;0.20;0.10;;;;;;;2.41;100.00;102140.81;5004230;28;20452;-51
2023/12/18 09:38:06;;;;;;;0.20;0.20;;;;;;;2.34;100.00;102147.59;5000022;28;20452;-51
2023/12/18 09:40:33;;;;;;;0.20;0.10;;;;;;;2.04;100.00;102142.13;5002451;28;20496;-51
2023/12/18 09:43:04;;;;;;;0.20;0.10;;;;;;;2.18;100.00;102136.47;5006574;28;20477;-51
2023/12/18 09:45:31;;;;;;;0.20;0.10;;;;;;;2.09;100.00;102134.44;5004883;28;20456;-51
2023/12/18 09:47:59;;;;;;;0.20;0.10;;;;;;;2.07;100.00;102134.41;4999782;28;20822;-51
2023/12/18 09:50:26;;;;;;;0.20;0.10;;;;;;;2.15;100.00;102131.13;5001203;28;20960;-51
2023/12/18 09:53:02;;;;;;;0.20;0.10;;;;;;;2.16;100.00;102133.81;5006339;28;20975;-51
2023/12/18 09:55:31;;;;;;;0.20;0.10;;;;;;;2.32;100.00;102119.50;4993609;28;20501;-51
2023/12/18 09:58:00;;;;;;;0.20;0.10;;;;;;;2.55;100.00;102120.28;5006006;28;20476;-51
2023/12/18 10:00:27;;;;;;;0.20;0.10;;;;;;;2.78;100.00;102116.69;5004867;28;20596;-51
2023/12/18 10:02:58;;;;;;;0.20;0.10;;;;;;;2.27;100.00;102116.72;5000615;28;20537;-51
2023/12/18 10:05:26;;;;;;;0.20;0.10;;;;;;;2.50;100.00;102116.63;4998295;28;20453;-51
2023/12/18 10:07:54;;;;;;;0.20;0.20;;;;;;;2.53;100.00;102117.59;5001505;28;20457;-51
2023/12/18 10:10:21;;;;;;;0.20;0.10;;;;;;;2.46;100.00;102114.72;4999009;28;20583;-51
2023/12/18 10:12:48;;;;;;;0.20;0.10;;;;;;;2.70;100.00;102110.28;5003911;28;20446;-51
2023/12/18 10:15:14;;;;;;;0.20;0.10;;;;;;;2.94;100.00;102104.94;5004964;28;20477;-51
2023/12/18 10:17:41;;;;;;;0.20;0.10;;;;;;;2.90;100.00;102101.34;4996569;28;20456;-51
2023/12/18 10:20:10;;;;;;;0.50;0.50;;;;;;;2.72;100.00;102102.47;5005633;28;20484;-51
2023/12/18 10:22:38;;;;;;;0.20;0.10;;;;;;;2.78;100.00;102094.78;5002355;28;20452;-51
2023/12/18 10:25:06;;;;;;;0.20;0.10;;;;;;;3.02;100.00;102095.59;4999122;28;20518;-51
2023/12/18 10:27:33;;;;;;;0.20;0.10;;;;;;;3.00;100.00;102088.47;5002318;28;20581;-51
2023/12/18 10:30:00;;;;;;;0.20;0.10;;;;;;;2.92;100.00;102086.50;5006070;28;20476;-51
2023/12/18 10:32:30;;;;;;;0.20;0.10;;;;;;;2.87;100.00;102092.44;5003251;28;20476;-51
2023/12/18 10:34:56;;;;;;;5.70;2.67;;;;;;;2.95;100.00;102083.97;4999095;28;20827;-51
2023/12/18 10:37:29;;;;;;;0.20;0.10;;;;;;;3.03;100.00;102084.22;5001222;28;20456;-51
2023/12/18 10:40:00;;;;;;;0.20;0.10;;;;;;;3.19;100.00;102090.84;5005490;28;20453;-51
2023/12/18 10:42:31;;;;;;;0.20;0.10;;;;;;;3.21;100.00;102084.78;5004963;28;20559;-52
2023/12/18 10:44:59;;;;;;;0.20;0.10;;;;;;;3.11;100.00;102084.44;4986562;28;20515;-51
2023/12/18 10:47:26;;;;;;;0.20;0.20;;;;;;;3.16;100.00;102082.88;4998691;28;20503;-53
2023/12/18 10:49:53;;;;;;;0.20;0.10;;;;;;;3.37;100.00;102083.50;5005058;28;20459;-53
2023/12/18 10:52:22;;;;;;;0.20;0.20;;;;;;;3.12;100.00;102071.34;5005603;28;20449;-53
2023/12/18 10:54:50;;;;;;;0.73;0.73;;;;;;;2.83;100.00;102074.81;4987764;28;20448;-51
2023/12/18 10:57:20;;;;;;;0.20;0.10;;;;;;;2.92;100.00;102072.50;5011465;28;20457;-52
2023/12/18 10:59:48;;;;;;;0.20;0.10;;;;;;;2.68;100.00;102067.34;5000766;28;20463;-51
2023/12/18 11:02:16;;;;;;;0.20;0.10;;;;;;;2.76;100.00;102064.97;4998753;28;20563;-51
2023/12/18 11:04:46;;;;;;;0.20;0.10;;;;;;;3.10;100.00;102061.66;5002452;28;20453;-51
2023/12/18 11:07:16;;;;;;;0.20;0.10;;;;;;;3.07;100.00;102062.44;4995158;28;20449;-51
2023/12/18 11:09:44;;;;;;;0.20;0.10;;;;;;;3.63;100.00;102063.22;5001482;28;20515;-52
2023/12/18 11:12:12;;;;;;;0.20;0.10;;;;;;;3.47;100.00;102056.66;4995522;28;20480;-51
2023/12/18 11:15:02;;;;;;;0.20;0.10;;;;;;;3.53;100.00;102048.03;5000975;28;20458;-52
2023/12/18 11:17:40;;;;;;;0.20;0.10;;;;;;;3.26;100.00;102046.38;4984143;28;20453;-51
2023/12/18 11:20:22;;;;;;;0.20;0.10;;;;;;;3.31;100.00;102048.28;5005070;28;20498;-51
2023/12/18 11:22:53;;;;;;;0.20;0.10;;;;;;;2.89;100.00;102043.50;5003466;28;20448;-51